createdAt,value
2023-05-10T00:01:09.765Z,13.30
2023-05-10T00:03:41.737Z,13.38
2023-05-10T00:06:12.087Z,12.94
2023-05-10T00:08:42.672Z,12.98
2023-05-10T00:11:12.861Z,13.35
2023-05-10T00:13:44.023Z,13.10
2023-05-10T00:16:15.113Z,13.27
2023-05-10T00:18:45.145Z,13.23
2023-05-10T00:21:14.992Z,13.40
2023-05-10T00:23:45.116Z,12.98
2023-05-10T00:26:14.910Z,12.96
2023-05-10T00:28:45.242Z,13.20
2023-05-10T00:31:17.715Z,12.86
2023-05-10T00:33:47.540Z,13.07
2023-05-10T00:36:18.230Z,12.98
2023-05-10T00:38:47.944Z,13.13
2023-05-10T00:41:18.958Z,13.14
2023-05-10T00:43:49.613Z,13.11
2023-05-10T00:46:20.948Z,12.81
2023-05-10T00:48:51.582Z,12.40
2023-05-10T00:51:22.006Z,12.33
2023-05-10T00:53:52.536Z,12.24
2023-05-10T00:56:28.962Z,12.72
2023-05-10T00:58:59.578Z,12.96
2023-05-10T01:01:31.964Z,12.60
2023-05-10T01:04:03.530Z,12.92
2023-05-10T01:06:33.841Z,12.73
2023-05-10T01:09:03.359Z,12.79
2023-05-10T01:11:33.964Z,12.97
2023-05-10T01:14:05.536Z,12.91
2023-05-10T01:16:39.885Z,12.87
2023-05-10T01:19:16.416Z,12.76
2023-05-10T01:21:53.628Z,12.96
2023-05-10T01:25:11.591Z,13.13
2023-05-10T01:28:08.263Z,12.82
2023-05-10T01:31:15.039Z,12.57
2023-05-10T01:33:51.288Z,12.56
2023-05-10T01:36:30.007Z,13.00
2023-05-10T01:39:04.927Z,12.73
2023-05-10T01:41:44.058Z,12.84
2023-05-10T01:44:20.788Z,11.82
2023-05-10T01:46:54.327Z,12.26
2023-05-10T01:49:29.256Z,12.48
2023-05-10T01:52:13.881Z,12.66
2023-05-10T01:54:47.739Z,12.45
2023-05-10T01:57:18.772Z,12.87
2023-05-10T01:59:49.625Z,13.00
2023-05-10T02:02:22.374Z,12.71
2023-05-10T02:04:54.846Z,12.51
2023-05-10T02:07:26.352Z,12.54
2023-05-10T02:09:56.903Z,12.46
2023-05-10T02:12:28.860Z,12.74
2023-05-10T02:15:01.223Z,12.72
2023-05-10T02:17:33.327Z,12.39
2023-05-10T02:20:07.277Z,12.12
2023-05-10T02:22:39.824Z,12.48
2023-05-10T02:25:11.302Z,12.95
2023-05-10T02:27:42.543Z,12.40
2023-05-10T02:30:14.081Z,12.49
2023-05-10T02:32:45.149Z,12.56
2023-05-10T02:35:17.071Z,12.31
2023-05-10T02:37:47.538Z,12.37
2023-05-10T02:40:18.933Z,12.65
2023-05-10T02:42:53.049Z,12.65
2023-05-10T02:45:27.764Z,12.68
2023-05-10T02:47:58.822Z,12.70
2023-05-10T02:50:31.196Z,12.76
2023-05-10T02:53:04.735Z,12.50
2023-05-10T02:55:40.009Z,12.72
2023-05-10T02:58:10.554Z,12.73
2023-05-10T03:00:40.289Z,12.38
2023-05-10T03:03:10.483Z,12.26
2023-05-10T03:05:42.135Z,12.11
2023-05-10T03:08:12.209Z,12.45
2023-05-10T03:10:50.335Z,12.45
2023-05-10T03:13:28.592Z,12.42
2023-05-10T03:16:03.012Z,12.28
2023-05-10T03:18:41.595Z,12.32
2023-05-10T03:21:16.578Z,12.35
2023-05-10T03:23:49.227Z,12.43
2023-05-10T03:26:23.613Z,12.20
2023-05-10T03:28:54.596Z,12.36
2023-05-10T03:31:24.848Z,12.23
2023-05-10T03:33:55.925Z,12.30
2023-05-10T03:36:27.408Z,12.37
2023-05-10T03:38:58.207Z,12.21
2023-05-10T03:41:28.775Z,12.34
2023-05-10T03:44:00.075Z,12.02
2023-05-10T03:46:29.960Z,12.19
2023-05-10T03:49:00.980Z,12.20
2023-05-10T03:51:33.366Z,12.38
2023-05-10T03:54:03.229Z,12.16
2023-05-10T03:56:33.120Z,12.41
2023-05-10T03:59:08.447Z,12.35
2023-05-10T04:01:38.658Z,12.44
2023-05-10T04:04:09.840Z,12.15
2023-05-10T04:06:42.216Z,12.09
2023-05-10T04:09:12.145Z,12.24
2023-05-10T04:11:42.092Z,12.50
2023-05-10T04:14:11.953Z,12.41
2023-05-10T04:16:42.318Z,12.08
2023-05-10T04:19:13.159Z,12.06
2023-05-10T04:21:44.499Z,12.24
2023-05-10T04:24:14.434Z,12.43
2023-05-10T04:26:45.016Z,12.39
2023-05-10T04:29:15.113Z,12.47
2023-05-10T04:31:44.644Z,12.66
2023-05-10T04:34:14.479Z,12.86
2023-05-10T04:36:46.566Z,12.85
2023-05-10T04:39:16.946Z,12.82
2023-05-10T04:41:48.799Z,12.67
2023-05-10T04:44:19.677Z,12.51
2023-05-10T04:46:50.124Z,12.69
2023-05-10T04:49:20.297Z,12.95
2023-05-10T04:51:52.421Z,12.79
2023-05-10T04:54:23.313Z,12.87
2023-05-10T04:56:54.098Z,12.87
2023-05-10T04:59:24.867Z,12.68
2023-05-10T05:01:54.785Z,13.01
2023-05-10T05:04:25.661Z,12.77
2023-05-10T05:06:57.937Z,12.70
2023-05-10T05:09:28.486Z,12.82
2023-05-10T05:11:58.276Z,12.92
2023-05-10T05:14:28.391Z,12.97
2023-05-10T05:16:59.398Z,12.79
2023-05-10T05:19:29.119Z,12.81
2023-05-10T05:22:01.471Z,12.80
2023-05-10T05:24:31.733Z,12.90
2023-05-10T05:27:02.128Z,13.00
2023-05-10T05:29:31.895Z,12.88
2023-05-10T05:32:02.331Z,12.77
2023-05-10T05:34:32.794Z,12.87
2023-05-10T05:37:05.184Z,13.19
2023-05-10T05:39:35.739Z,13.36
2023-05-10T05:42:05.830Z,13.27
2023-05-10T05:44:36.134Z,13.30
2023-05-10T05:47:06.191Z,13.17
2023-05-10T05:49:36.460Z,13.25
2023-05-10T05:52:08.148Z,13.62
2023-05-10T05:54:38.575Z,13.49
2023-05-10T05:57:09.898Z,13.66
2023-05-10T05:59:43.241Z,13.55
2023-05-10T06:02:13.738Z,13.71
2023-05-10T06:04:44.894Z,13.70
2023-05-10T06:07:16.801Z,13.65
2023-05-10T06:09:47.124Z,13.53
2023-05-10T06:12:17.649Z,13.83
2023-05-10T06:14:47.813Z,13.86
2023-05-10T06:17:18.204Z,13.71
2023-05-10T06:19:48.226Z,13.76
2023-05-10T06:22:19.390Z,13.57
2023-05-10T06:24:49.395Z,13.36
2023-05-10T06:27:19.808Z,13.23
2023-05-10T06:29:52.250Z,13.44
2023-05-10T06:32:27.248Z,13.61
2023-05-10T06:34:56.976Z,13.43
2023-05-10T06:37:30.629Z,13.81
2023-05-10T06:39:59.976Z,13.55
2023-05-10T06:42:30.447Z,13.65
2023-05-10T06:44:59.812Z,13.92
2023-05-10T06:47:29.260Z,13.70
2023-05-10T06:50:00.217Z,13.65
2023-05-10T06:52:31.614Z,13.62
2023-05-10T06:55:02.178Z,13.98
2023-05-10T06:57:32.340Z,14.04
2023-05-10T07:00:02.522Z,14.01
2023-05-10T07:02:32.766Z,14.26
2023-05-10T07:05:03.811Z,14.44
2023-05-10T07:07:36.227Z,14.44
2023-05-10T07:10:07.247Z,14.57
2023-05-10T07:12:38.384Z,14.45
2023-05-10T07:15:10.557Z,14.35
2023-05-10T07:17:41.841Z,13.98
2023-05-10T07:20:14.790Z,14.10
2023-05-10T07:22:46.410Z,14.38
2023-05-10T07:25:16.922Z,14.76
2023-05-10T07:27:49.745Z,14.84
2023-05-10T07:30:19.865Z,14.67
2023-05-10T07:32:50.042Z,14.75
2023-05-10T07:35:19.757Z,14.35
2023-05-10T07:37:50.847Z,14.54
2023-05-10T07:40:21.377Z,14.76
2023-05-10T07:42:52.340Z,14.02
2023-05-10T07:45:24.286Z,13.69
2023-05-10T07:47:54.418Z,14.13
2023-05-10T07:50:24.099Z,14.53
2023-05-10T07:52:56.387Z,14.60
2023-05-10T07:55:26.414Z,14.48
2023-05-10T07:57:57.183Z,14.43
2023-05-10T08:00:27.123Z,14.56
2023-05-10T08:02:57.245Z,14.37
2023-05-10T08:05:27.179Z,14.17
2023-05-10T08:07:58.687Z,14.45
2023-05-10T08:10:28.925Z,14.15
2023-05-10T08:12:59.809Z,14.15
2023-05-10T08:15:30.053Z,14.19
2023-05-10T08:18:00.583Z,14.63
2023-05-10T08:20:30.792Z,14.82
2023-05-10T08:23:02.437Z,14.30
2023-05-10T08:25:32.744Z,14.34
2023-05-10T08:28:03.330Z,14.11
2023-05-10T08:30:33.666Z,14.00
2023-05-10T08:33:03.633Z,14.10
2023-05-10T08:35:34.630Z,14.01
2023-05-10T08:38:07.394Z,14.36
2023-05-10T08:40:39.090Z,14.72
2023-05-10T08:43:10.271Z,14.66
2023-05-10T08:45:42.346Z,14.47
2023-05-10T08:48:13.548Z,14.45
2023-05-10T08:50:44.361Z,14.56
2023-05-10T08:53:17.157Z,14.96
2023-05-10T08:55:46.890Z,14.79
2023-05-10T08:58:17.364Z,15.07
2023-05-10T09:00:47.142Z,14.66
2023-05-10T09:03:18.335Z,15.02
2023-05-10T09:05:49.004Z,14.99
2023-05-10T09:08:21.180Z,15.09
2023-05-10T09:10:52.989Z,15.01
2023-05-10T09:13:24.684Z,15.23
2023-05-10T09:15:56.350Z,15.49
2023-05-10T09:18:28.136Z,15.37
2023-05-10T09:20:58.637Z,15.48
2023-05-10T09:23:33.666Z,15.34
2023-05-10T09:26:07.194Z,15.31
2023-05-10T09:28:37.430Z,15.44
2023-05-10T09:31:07.568Z,15.65
2023-05-10T09:33:47.457Z,15.47
2023-05-10T09:36:18.977Z,15.15
2023-05-10T09:38:52.441Z,15.25
2023-05-10T09:41:24.697Z,15.29
2023-05-10T09:43:58.513Z,15.51
2023-05-10T09:46:29.520Z,15.37
2023-05-10T09:49:00.396Z,15.46
2023-05-10T09:51:30.367Z,15.56
2023-05-10T09:54:14.581Z,15.63
2023-05-10T09:56:45.101Z,15.94
2023-05-10T09:59:16.293Z,15.99
2023-05-10T10:01:46.333Z,16.13
2023-05-10T10:04:16.941Z,16.35
2023-05-10T10:06:47.396Z,16.47
2023-05-10T10:09:19.949Z,16.53
2023-05-10T10:11:52.438Z,16.42
2023-05-10T10:14:24.596Z,16.24
2023-05-10T10:17:07.439Z,16.28
2023-05-10T10:19:39.656Z,16.41
2023-05-10T10:22:12.884Z,16.15
2023-05-10T10:24:45.418Z,16.55
2023-05-10T10:27:25.968Z,16.46
2023-05-10T10:30:07.361Z,16.37
2023-05-10T10:32:51.888Z,16.54
2023-05-10T10:35:23.974Z,16.28
2023-05-10T10:37:55.013Z,16.37
2023-05-10T10:40:34.445Z,16.56
2023-05-10T10:43:27.414Z,16.89
2023-05-10T10:46:16.130Z,17.13
2023-05-10T10:48:52.699Z,16.95
2023-05-10T10:51:22.856Z,16.97
2023-05-10T10:53:52.906Z,17.13
2023-05-10T10:56:25.791Z,16.78
2023-05-10T10:58:57.510Z,16.84
2023-05-10T11:01:27.813Z,16.73
2023-05-10T11:04:21.725Z,17.04
2023-05-10T11:06:53.879Z,16.65
2023-05-10T11:09:28.197Z,16.56
2023-05-10T11:12:01.038Z,16.75
2023-05-10T11:14:35.102Z,16.66
2023-05-10T11:17:06.170Z,16.77
2023-05-10T11:19:36.762Z,16.71
2023-05-10T11:22:18.562Z,16.70
2023-05-10T11:25:01.253Z,16.74
2023-05-10T11:27:34.742Z,16.60
2023-05-10T11:30:07.816Z,16.60
2023-05-10T11:32:40.778Z,16.62
2023-05-10T11:35:11.525Z,16.55
2023-05-10T11:37:45.211Z,16.39
2023-05-10T11:40:16.516Z,16.34
2023-05-10T11:42:48.594Z,16.48
2023-05-10T11:45:19.205Z,16.78
2023-05-10T11:47:52.118Z,16.50
2023-05-10T11:50:23.261Z,16.52
2023-05-10T11:52:54.912Z,16.51
2023-05-10T11:55:25.903Z,16.41
2023-05-10T11:57:58.799Z,16.45
2023-05-10T12:00:28.423Z,16.46
2023-05-10T12:02:58.223Z,16.50
2023-05-10T12:05:29.011Z,16.40
2023-05-10T12:08:15.723Z,16.65
2023-05-10T12:10:46.104Z,16.59
2023-05-10T12:13:34.942Z,16.69
2023-05-10T12:16:16.897Z,16.62
2023-05-10T12:18:48.110Z,16.19
2023-05-10T12:21:19.086Z,16.40
2023-05-10T12:23:51.674Z,16.13
2023-05-10T12:26:24.167Z,16.40
2023-05-10T12:28:56.775Z,16.50
2023-05-10T12:31:28.731Z,16.53
2023-05-10T12:34:00.406Z,16.40
2023-05-10T12:36:30.991Z,16.27
2023-05-10T12:39:06.932Z,16.37
2023-05-10T12:41:37.136Z,16.36
2023-05-10T12:44:08.604Z,16.35
2023-05-10T12:46:38.497Z,16.57
2023-05-10T12:49:10.008Z,16.61
2023-05-10T12:51:41.029Z,16.62
2023-05-10T12:54:10.905Z,16.46
2023-05-10T12:56:42.406Z,16.49
2023-05-10T12:59:13.865Z,16.63
2023-05-10T13:01:44.599Z,16.62
2023-05-10T13:04:15.033Z,16.73
2023-05-10T13:06:45.490Z,16.70
2023-05-10T13:09:16.981Z,16.53
2023-05-10T13:11:49.078Z,16.60
2023-05-10T13:14:21.773Z,16.36
2023-05-10T13:16:52.162Z,16.39
2023-05-10T13:19:22.841Z,16.49
2023-05-10T13:21:53.684Z,16.51
2023-05-10T13:24:25.731Z,16.47
2023-05-10T13:26:56.206Z,16.43
2023-05-10T13:29:27.460Z,16.46
2023-05-10T13:31:57.632Z,16.51
2023-05-10T13:34:27.931Z,16.38
2023-05-10T13:36:59.024Z,16.52
2023-05-10T13:39:30.975Z,16.38
2023-05-10T13:42:01.287Z,16.49
2023-05-10T13:44:34.944Z,16.48
2023-05-10T13:47:05.653Z,16.58
2023-05-10T13:49:36.304Z,16.52
2023-05-10T13:52:08.300Z,16.57
2023-05-10T13:54:39.626Z,16.49
2023-05-10T13:57:10.498Z,16.58
2023-05-10T13:59:41.836Z,16.74
2023-05-10T14:02:13.816Z,16.62
2023-05-10T14:04:45.003Z,16.63
2023-05-10T14:07:15.168Z,16.64
2023-05-10T14:09:45.545Z,16.59
2023-05-10T14:12:16.322Z,16.70
2023-05-10T14:14:48.437Z,16.74
2023-05-10T14:17:19.712Z,16.65
2023-05-10T14:19:51.078Z,16.69
2023-05-10T14:22:21.309Z,16.59
2023-05-10T14:24:52.047Z,16.59
2023-05-10T14:27:24.543Z,16.57
2023-05-10T14:29:56.955Z,16.69
2023-05-10T14:32:29.051Z,16.66
2023-05-10T14:34:59.639Z,16.82
2023-05-10T14:37:29.494Z,16.50
2023-05-10T14:39:59.665Z,16.57
2023-05-10T14:42:29.593Z,16.56
2023-05-10T14:45:01.269Z,16.65
2023-05-10T14:47:31.583Z,16.59
2023-05-10T14:50:01.977Z,16.63
2023-05-10T14:52:34.236Z,16.80
2023-05-10T14:55:05.710Z,16.85
2023-05-10T14:57:36.109Z,16.70
2023-05-10T15:00:10.597Z,16.92
2023-05-10T15:02:42.393Z,16.91
2023-05-10T15:05:13.552Z,16.99
2023-05-10T15:07:45.340Z,16.91
2023-05-10T15:10:15.354Z,16.82
2023-05-10T15:12:46.086Z,16.99
2023-05-10T15:15:18.090Z,16.91
2023-05-10T15:17:48.191Z,16.91
2023-05-10T15:20:18.520Z,16.89
2023-05-10T15:22:48.353Z,16.67
2023-05-10T15:25:18.561Z,16.81
2023-05-10T15:27:48.884Z,16.94
2023-05-10T15:30:20.306Z,16.91
2023-05-10T15:32:50.120Z,16.99
2023-05-10T15:35:20.078Z,16.97
2023-05-10T15:37:53.003Z,17.00
2023-05-10T15:40:23.027Z,17.10
2023-05-10T15:42:53.035Z,17.14
2023-05-10T15:45:24.245Z,17.33
2023-05-10T15:47:54.974Z,17.23
2023-05-10T15:50:25.595Z,17.42
2023-05-10T15:52:54.969Z,17.27
2023-05-10T15:55:25.064Z,17.07
2023-05-10T15:57:54.736Z,16.93
2023-05-10T16:00:27.434Z,16.88
2023-05-10T16:02:58.456Z,17.02
2023-05-10T16:05:32.909Z,16.93
2023-05-10T16:08:03.256Z,16.91
2023-05-10T16:10:34.960Z,16.94
2023-05-10T16:13:06.478Z,16.88
2023-05-10T16:15:38.774Z,16.95
2023-05-10T16:18:09.602Z,16.97
2023-05-10T16:20:40.365Z,16.92
2023-05-10T16:23:11.055Z,16.97
2023-05-10T16:25:41.710Z,16.99
2023-05-10T16:28:11.022Z,17.01
2023-05-10T16:30:42.756Z,16.89
2023-05-10T16:33:12.744Z,16.93
2023-05-10T16:35:43.419Z,16.88
2023-05-10T16:38:15.501Z,16.96
2023-05-10T16:40:46.785Z,16.92
2023-05-10T16:43:16.696Z,16.89
2023-05-10T16:45:48.926Z,16.95
2023-05-10T16:48:19.096Z,16.84
2023-05-10T16:50:48.999Z,16.77
2023-05-10T16:53:19.458Z,16.88
2023-05-10T16:55:49.162Z,16.94
2023-05-10T16:58:20.401Z,16.95
2023-05-10T17:00:51.913Z,16.85
2023-05-10T17:03:21.721Z,16.95
2023-05-10T17:05:51.528Z,16.90
2023-05-10T17:08:21.740Z,16.94
2023-05-10T17:10:51.648Z,16.88
2023-05-10T17:13:22.451Z,16.84
2023-05-10T17:15:54.684Z,16.92
2023-05-10T17:18:25.714Z,16.95
2023-05-10T17:20:56.162Z,16.97
2023-05-10T17:23:26.151Z,16.94
2023-05-10T17:25:56.234Z,16.90
2023-05-10T17:28:26.295Z,16.94
2023-05-10T17:31:01.988Z,16.85
2023-05-10T17:33:32.650Z,16.83
2023-05-10T17:36:03.615Z,16.79
2023-05-10T17:38:33.724Z,16.77
2023-05-10T17:41:04.670Z,16.74
2023-05-10T17:43:34.734Z,16.71
2023-05-10T17:46:07.429Z,16.61
2023-05-10T17:48:38.147Z,16.53
2023-05-10T17:51:08.417Z,16.67
2023-05-10T17:53:38.390Z,16.65
2023-05-10T17:56:09.844Z,16.57
2023-05-10T17:58:39.815Z,16.54
2023-05-10T18:01:12.590Z,16.43
2023-05-10T18:03:42.442Z,16.46
2023-05-10T18:06:13.181Z,16.31
2023-05-10T18:08:43.925Z,16.32
2023-05-10T18:11:14.384Z,16.36
2023-05-10T18:13:44.447Z,16.48
2023-05-10T18:16:16.430Z,16.43
2023-05-10T18:18:46.716Z,16.58
2023-05-10T18:21:18.167Z,16.44
2023-05-10T18:23:47.979Z,16.43
2023-05-10T18:26:18.472Z,16.36
2023-05-10T18:28:49.234Z,16.29
2023-05-10T18:31:21.511Z,16.08
2023-05-10T18:33:51.404Z,16.34
2023-05-10T18:36:24.671Z,16.28
2023-05-10T18:38:55.736Z,16.14
2023-05-10T18:41:27.256Z,16.32
2023-05-10T18:43:57.118Z,16.19
2023-05-10T18:46:28.803Z,16.15
2023-05-10T18:48:59.267Z,16.26
2023-05-10T18:51:29.788Z,16.07
2023-05-10T18:54:08.189Z,16.14
2023-05-10T18:56:40.358Z,16.13
2023-05-10T18:59:10.750Z,16.03
2023-05-10T19:01:42.956Z,15.94
2023-05-10T19:04:14.110Z,16.06
2023-05-10T19:06:45.193Z,15.96
2023-05-10T19:09:15.419Z,16.05
2023-05-10T19:11:46.366Z,16.08
2023-05-10T19:14:17.143Z,16.12
2023-05-10T19:16:51.004Z,16.10
2023-05-10T19:19:21.531Z,16.15
2023-05-10T19:21:52.218Z,16.10
2023-05-10T19:24:26.376Z,16.07
2023-05-10T19:26:59.291Z,16.09
2023-05-10T19:29:29.911Z,16.11
2023-05-10T19:32:04.045Z,16.01
2023-05-10T19:34:34.885Z,15.87
2023-05-10T19:37:05.450Z,15.88
2023-05-10T19:39:35.994Z,15.97
2023-05-10T19:42:06.964Z,15.90
2023-05-10T19:44:38.143Z,15.78
2023-05-10T19:47:12.965Z,15.90
2023-05-10T19:49:43.925Z,15.90
2023-05-10T19:52:13.591Z,15.92
2023-05-10T19:54:45.660Z,15.92
2023-05-10T19:57:15.670Z,15.84
2023-05-10T19:59:45.892Z,15.95
2023-05-10T20:02:17.505Z,15.87
2023-05-10T20:04:47.078Z,15.93
2023-05-10T20:07:17.363Z,15.91
2023-05-10T20:09:48.199Z,15.90
2023-05-10T20:12:18.299Z,15.91
2023-05-10T20:14:48.140Z,15.87
2023-05-10T20:17:20.840Z,15.90
2023-05-10T20:19:51.127Z,15.77
2023-05-10T20:22:21.130Z,15.54
2023-05-10T20:24:51.502Z,15.60
2023-05-10T20:27:22.927Z,15.72
2023-05-10T20:29:52.787Z,15.71
2023-05-10T20:32:24.915Z,15.62
2023-05-10T20:34:54.718Z,15.78
2023-05-10T20:37:28.009Z,15.77
2023-05-10T20:39:58.360Z,15.91
2023-05-10T20:42:28.683Z,15.83
2023-05-10T20:45:00.373Z,15.85
2023-05-10T20:47:32.938Z,15.77
2023-05-10T20:50:02.881Z,15.69
2023-05-10T20:52:32.975Z,15.69
2023-05-10T20:55:02.949Z,15.56
2023-05-10T20:57:33.466Z,15.61
2023-05-10T21:00:04.349Z,15.76
2023-05-10T21:02:40.335Z,15.81
2023-05-10T21:05:11.661Z,15.54
2023-05-10T21:07:41.666Z,15.72
2023-05-10T21:10:13.741Z,15.68
2023-05-10T21:12:44.327Z,15.82
2023-05-10T21:15:16.221Z,15.76
2023-05-10T21:17:49.033Z,15.74
2023-05-10T21:20:20.152Z,15.74
2023-05-10T21:22:50.526Z,15.78
2023-05-10T21:25:20.738Z,15.96
2023-05-10T21:27:51.735Z,15.77
2023-05-10T21:30:21.753Z,15.81
2023-05-10T21:32:55.478Z,15.83
2023-05-10T21:35:26.276Z,15.56
2023-05-10T21:37:56.802Z,15.67
2023-05-10T21:40:27.060Z,15.64
2023-05-10T21:42:58.557Z,15.76
2023-05-10T21:45:32.537Z,15.71
2023-05-10T21:48:05.017Z,15.84
2023-05-10T21:50:35.471Z,15.65
2023-05-10T21:53:06.463Z,15.74
2023-05-10T21:55:37.564Z,15.64
2023-05-10T21:58:07.686Z,15.73
2023-05-10T22:00:38.294Z,15.80
2023-05-10T22:03:10.417Z,15.51
2023-05-10T22:05:41.873Z,15.77
2023-05-10T22:08:11.998Z,15.79
2023-05-10T22:10:43.408Z,15.62
2023-05-10T22:13:13.063Z,15.73
2023-05-10T22:15:44.149Z,15.67
2023-05-10T22:18:16.030Z,15.73
2023-05-10T22:20:47.011Z,15.82
2023-05-10T22:23:17.261Z,15.82
2023-05-10T22:25:47.103Z,15.82
2023-05-10T22:28:17.742Z,15.60
2023-05-10T22:30:48.519Z,15.22
2023-05-10T22:33:21.701Z,15.10
2023-05-10T22:35:51.466Z,15.17
2023-05-10T22:38:21.977Z,15.41
2023-05-10T22:40:52.151Z,15.59
2023-05-10T22:43:21.909Z,15.52
2023-05-10T22:45:52.721Z,15.55
2023-05-10T22:48:24.089Z,15.43
2023-05-10T22:50:54.285Z,15.52
2023-05-10T22:53:24.154Z,15.50
2023-05-10T22:55:54.145Z,15.49
2023-05-10T22:58:24.262Z,15.37
2023-05-10T23:00:54.351Z,15.18
2023-05-10T23:03:28.468Z,15.09
2023-05-10T23:05:59.064Z,15.17
2023-05-10T23:08:29.777Z,15.29
2023-05-10T23:10:59.322Z,15.34
2023-05-10T23:13:29.707Z,15.42
2023-05-10T23:15:59.392Z,15.25
2023-05-10T23:18:31.441Z,15.18
2023-05-10T23:21:01.126Z,15.05
2023-05-10T23:23:33.514Z,14.96
2023-05-10T23:26:05.381Z,15.25
2023-05-10T23:28:35.857Z,15.32
2023-05-10T23:31:06.810Z,15.41
2023-05-10T23:33:38.411Z,15.26
2023-05-10T23:36:09.684Z,15.13
2023-05-10T23:38:40.848Z,15.09
2023-05-10T23:41:11.264Z,15.23
2023-05-10T23:43:42.231Z,15.23
2023-05-10T23:46:11.937Z,15.27
2023-05-10T23:48:44.755Z,15.20
2023-05-10T23:51:15.171Z,15.18
2023-05-10T23:53:45.041Z,15.21
2023-05-10T23:56:15.616Z,15.29
2023-05-10T23:58:46.675Z,15.21
